createdAt,value
2019-04-29T00:01:28.958Z,0.73
2019-04-29T00:03:58.007Z,1.00
2019-04-29T00:06:27.123Z,1.40
2019-04-29T00:08:56.463Z,0.68
2019-04-29T00:11:25.707Z,1.45
2019-04-29T00:13:54.738Z,0.60
2019-04-29T00:16:33.211Z,1.90
2019-04-29T00:19:20.131Z,2.05
2019-04-29T00:21:49.496Z,1.05
2019-04-29T00:24:18.480Z,0.82
2019-04-29T00:26:47.888Z,0.62
2019-04-29T00:29:17.147Z,1.57
2019-04-29T00:31:46.583Z,1.47
2019-04-29T00:34:15.632Z,2.45
2019-04-29T00:37:01.122Z,1.43
2019-04-29T00:40:01.549Z,0.82
2019-04-29T00:42:48.605Z,2.35
2019-04-29T00:45:17.737Z,0.75
2019-04-29T00:47:46.779Z,1.35
2019-04-29T00:50:15.839Z,1.15
2019-04-29T00:52:44.932Z,0.85
2019-04-29T00:55:16.843Z,1.00
2019-04-29T00:57:45.880Z,1.35
2019-04-29T01:00:26.982Z,1.05
2019-04-29T01:02:55.907Z,2.55
2019-04-29T01:05:24.863Z,1.02
2019-04-29T01:07:53.918Z,1.10
2019-04-29T01:10:22.760Z,1.00
2019-04-29T01:12:52.048Z,0.60
2019-04-29T01:15:21.437Z,1.45
2019-04-29T01:17:50.555Z,1.95
2019-04-29T01:20:19.543Z,1.25
2019-04-29T01:22:48.442Z,1.32
2019-04-29T01:25:17.441Z,1.60
2019-04-29T01:28:01.098Z,1.15
2019-04-29T01:30:56.416Z,1.97
2019-04-29T01:33:25.406Z,1.85
2019-04-29T01:36:08.443Z,1.17
2019-04-29T01:38:37.378Z,0.93
2019-04-29T01:41:12.657Z,2.30
2019-04-29T01:44:07.157Z,1.37
2019-04-29T01:46:36.148Z,1.70
2019-04-29T01:49:05.220Z,2.40
2019-04-29T01:51:34.179Z,1.20
2019-04-29T01:54:03.236Z,0.93
2019-04-29T01:56:32.247Z,1.53
2019-04-29T01:59:01.388Z,1.90
2019-04-29T02:01:30.343Z,1.98
2019-04-29T02:03:59.428Z,1.32
2019-04-29T02:06:28.465Z,2.15
2019-04-29T02:08:57.759Z,1.67
2019-04-29T02:11:26.995Z,2.57
2019-04-29T02:13:56.111Z,2.25
2019-04-29T02:16:25.083Z,1.40
2019-04-29T02:18:54.755Z,1.30
2019-04-29T02:21:24.405Z,1.25
2019-04-29T02:24:08.525Z,2.02
2019-04-29T02:26:37.552Z,2.55
2019-04-29T02:29:06.617Z,1.25
2019-04-29T02:31:38.571Z,1.85
2019-04-29T02:34:08.161Z,2.95
2019-04-29T02:36:37.914Z,1.87
2019-04-29T02:39:17.536Z,1.80
2019-04-29T02:42:04.530Z,1.82
2019-04-29T02:44:33.841Z,3.83
2019-04-29T02:47:02.972Z,8.80
2019-04-29T02:49:32.097Z,2.22
2019-04-29T02:52:01.143Z,1.70
2019-04-29T02:54:30.566Z,1.80
2019-04-29T02:57:05.034Z,1.73
2019-04-29T02:59:38.698Z,1.47
2019-04-29T03:02:17.465Z,3.10
2019-04-29T03:05:04.635Z,1.62
2019-04-29T03:07:33.714Z,3.25
2019-04-29T03:10:02.688Z,1.47
2019-04-29T03:12:32.056Z,2.47
2019-04-29T03:15:01.333Z,4.08
2019-04-29T03:17:31.091Z,1.83
2019-04-29T03:20:15.261Z,1.72
2019-04-29T03:22:45.481Z,2.30
2019-04-29T03:25:14.622Z,5.20
2019-04-29T03:27:43.706Z,2.42
2019-04-29T03:30:12.840Z,2.33
2019-04-29T03:32:41.848Z,2.52
2019-04-29T03:35:11.201Z,5.35
2019-04-29T03:37:40.268Z,1.35
2019-04-29T03:40:09.245Z,1.70
2019-04-29T03:42:38.218Z,3.25
2019-04-29T03:45:07.737Z,2.50
2019-04-29T03:47:36.569Z,2.45
2019-04-29T03:50:06.014Z,2.72
2019-04-29T03:52:35.108Z,3.35
2019-04-29T03:55:04.033Z,1.35
2019-04-29T03:57:36.348Z,2.47
2019-04-29T04:00:06.157Z,4.25
2019-04-29T04:02:54.517Z,2.35
2019-04-29T04:05:45.547Z,2.58
2019-04-29T04:08:18.241Z,4.67
2019-04-29T04:10:47.229Z,2.47
2019-04-29T04:13:19.459Z,2.08
2019-04-29T04:15:48.687Z,3.83
2019-04-29T04:18:27.888Z,2.12
2019-04-29T04:20:56.888Z,2.80
2019-04-29T04:23:26.116Z,3.12
2019-04-29T04:25:55.485Z,3.57
2019-04-29T04:28:24.740Z,2.52
2019-04-29T04:30:54.083Z,1.70
2019-04-29T04:33:22.949Z,1.98
2019-04-29T04:35:51.960Z,2.20
2019-04-29T04:38:21.015Z,3.75
2019-04-29T04:41:15.712Z,3.43
2019-04-29T04:43:44.688Z,4.25
2019-04-29T04:46:13.734Z,1.90
2019-04-29T04:48:42.593Z,4.22
2019-04-29T04:51:11.666Z,1.70
2019-04-29T04:53:40.572Z,1.57
2019-04-29T04:56:09.651Z,4.97
2019-04-29T04:58:38.808Z,3.67
2019-04-29T05:01:08.167Z,1.90
2019-04-29T05:03:37.453Z,2.60
2019-04-29T05:06:07.074Z,2.60
2019-04-29T05:08:35.902Z,1.60
2019-04-29T05:11:05.339Z,2.47
2019-04-29T05:13:34.534Z,2.40
2019-04-29T05:16:03.524Z,2.72
2019-04-29T05:18:32.535Z,2.67
2019-04-29T05:21:01.640Z,3.47
2019-04-29T05:23:30.590Z,3.70
2019-04-29T05:26:00.064Z,2.33
2019-04-29T05:28:29.045Z,2.20
2019-04-29T05:30:58.091Z,2.13
2019-04-29T05:33:27.166Z,2.13
2019-04-29T05:36:13.459Z,1.90
2019-04-29T05:38:46.274Z,3.13
2019-04-29T05:41:15.813Z,2.77
2019-04-29T05:44:01.403Z,2.57
2019-04-29T05:46:55.836Z,2.47
2019-04-29T05:49:30.328Z,2.27
2019-04-29T05:52:18.311Z,2.73
2019-04-29T05:54:47.421Z,2.13
2019-04-29T05:57:20.483Z,5.23
2019-04-29T05:59:47.864Z,3.13
2019-04-29T06:02:17.846Z,3.20
2019-04-29T06:04:48.070Z,2.70
2019-04-29T06:07:21.658Z,5.23
2019-04-29T06:09:48.187Z,3.40
2019-04-29T06:12:16.983Z,3.87
2019-04-29T06:14:45.863Z,3.07
2019-04-29T06:17:15.174Z,2.73
2019-04-29T06:19:44.121Z,2.60
2019-04-29T06:22:13.062Z,3.70
2019-04-29T06:24:42.243Z,3.60
2019-04-29T06:27:11.516Z,2.80
2019-04-29T06:29:40.546Z,5.33
2019-04-29T06:32:09.517Z,4.03
2019-04-29T06:34:40.066Z,3.20
2019-04-29T06:37:09.641Z,2.90
2019-04-29T06:39:38.548Z,3.33
2019-04-29T06:42:08.403Z,3.30
2019-04-29T06:44:37.400Z,3.33
2019-04-29T06:47:06.449Z,3.07
2019-04-29T06:49:35.759Z,5.00
2019-04-29T06:52:04.736Z,2.97
2019-04-29T06:54:33.771Z,3.80
2019-04-29T06:57:02.724Z,2.60
2019-04-29T06:59:31.719Z,3.20
2019-04-29T07:02:00.951Z,2.93
2019-04-29T07:04:30.669Z,4.03
2019-04-29T07:07:00.884Z,2.90
2019-04-29T07:09:29.783Z,2.33
2019-04-29T07:12:01.548Z,3.03
2019-04-29T07:14:33.293Z,2.77
2019-04-29T07:17:00.866Z,4.53
2019-04-29T07:19:31.191Z,2.47
2019-04-29T07:22:00.086Z,5.00
2019-04-29T07:24:29.144Z,2.10
2019-04-29T07:27:02.714Z,2.60
2019-04-29T07:29:32.154Z,2.47
2019-04-29T07:31:59.301Z,2.67
2019-04-29T07:34:28.928Z,3.70
2019-04-29T07:36:59.460Z,3.27
2019-04-29T07:39:31.797Z,3.77
2019-04-29T07:41:59.247Z,2.60
2019-04-29T07:44:43.402Z,3.20
2019-04-29T07:47:02.470Z,3.20
2019-04-29T07:49:31.564Z,3.83
2019-04-29T07:52:00.399Z,3.77
2019-04-29T07:54:29.309Z,2.13
2019-04-29T07:56:58.367Z,2.67
2019-04-29T07:59:27.256Z,2.40
2019-04-29T08:01:59.764Z,2.07
2019-04-29T08:04:27.066Z,2.53
2019-04-29T08:06:56.279Z,3.30
2019-04-29T08:09:25.470Z,2.23
2019-04-29T08:11:54.615Z,3.60
2019-04-29T08:14:25.598Z,2.70
2019-04-29T08:16:54.635Z,4.00
2019-04-29T08:19:28.815Z,3.90
2019-04-29T08:21:54.677Z,3.10
2019-04-29T08:24:23.581Z,3.00
2019-04-29T08:26:52.560Z,5.07
2019-04-29T08:29:21.461Z,4.03
2019-04-29T08:31:51.766Z,5.23
2019-04-29T08:34:23.177Z,3.80
2019-04-29T08:36:51.834Z,3.27
2019-04-29T08:39:20.835Z,3.47
2019-04-29T08:41:50.056Z,5.27
2019-04-29T08:44:29.899Z,4.10
2019-04-29T08:47:23.032Z,3.17
2019-04-29T08:49:50.960Z,3.67
2019-04-29T08:52:19.920Z,4.33
2019-04-29T08:54:50.775Z,3.47
2019-04-29T08:57:19.639Z,5.07
2019-04-29T08:59:48.651Z,4.30
2019-04-29T09:02:17.588Z,4.17
2019-04-29T09:04:53.594Z,4.07
2019-04-29T09:07:22.010Z,2.53
2019-04-29T09:09:48.515Z,3.93
2019-04-29T09:12:19.253Z,3.70
2019-04-29T09:14:49.004Z,3.10
2019-04-29T09:17:20.537Z,2.63
2019-04-29T09:19:48.630Z,3.53
2019-04-29T09:22:20.091Z,4.63
2019-04-29T09:25:07.141Z,4.03
2019-04-29T09:27:40.707Z,2.30
2019-04-29T09:30:10.926Z,3.80
2019-04-29T09:32:40.304Z,3.50
2019-04-29T09:35:09.404Z,5.97
2019-04-29T09:37:38.924Z,4.20
2019-04-29T09:40:08.500Z,4.00
2019-04-29T09:42:45.443Z,3.23
2019-04-29T09:45:25.031Z,6.40
2019-04-29T09:47:54.219Z,5.60
2019-04-29T09:50:23.666Z,6.37
2019-04-29T09:52:53.121Z,3.50
2019-04-29T09:55:23.190Z,3.10
2019-04-29T09:57:52.562Z,3.70
2019-04-29T10:00:31.961Z,4.73
2019-04-29T10:03:09.929Z,3.47
2019-04-29T10:05:47.718Z,3.60
2019-04-29T10:08:16.752Z,3.27
2019-04-29T10:10:46.084Z,4.10
2019-04-29T10:13:15.050Z,3.70
2019-04-29T10:16:07.135Z,3.67
2019-04-29T10:18:47.911Z,3.23
2019-04-29T10:21:21.266Z,3.60
2019-04-29T10:23:47.954Z,4.57
2019-04-29T10:26:17.096Z,5.07
2019-04-29T10:28:57.005Z,4.80
2019-04-29T10:31:26.235Z,5.43
2019-04-29T10:33:56.538Z,2.17
2019-04-29T10:36:26.334Z,4.87
2019-04-29T10:38:57.387Z,4.23
2019-04-29T10:41:31.351Z,2.63
2019-04-29T10:44:12.783Z,2.80
2019-04-29T10:46:59.527Z,3.23
2019-04-29T10:49:40.328Z,5.53
2019-04-29T10:52:09.395Z,3.60
2019-04-29T10:54:38.525Z,4.37
2019-04-29T10:57:10.556Z,3.07
2019-04-29T10:59:44.882Z,4.30
2019-04-29T11:02:27.019Z,3.40
2019-04-29T11:05:02.700Z,5.97
2019-04-29T11:07:35.799Z,4.40
2019-04-29T11:10:24.398Z,3.67
2019-04-29T11:12:42.684Z,3.67
2019-04-29T11:15:13.906Z,3.10
2019-04-29T11:17:44.495Z,3.17
2019-04-29T11:20:15.900Z,4.47
2019-04-29T11:22:50.644Z,5.43
2019-04-29T11:25:42.006Z,3.60
2019-04-29T11:28:12.183Z,5.33
2019-04-29T11:30:42.047Z,4.63
2019-04-29T11:33:16.907Z,4.77
2019-04-29T11:35:52.785Z,4.17
2019-04-29T11:38:22.000Z,4.13
2019-04-29T11:40:51.420Z,2.93
2019-04-29T11:43:21.892Z,3.83
2019-04-29T11:45:50.927Z,4.20
2019-04-29T11:48:19.810Z,4.33
2019-04-29T11:50:57.131Z,4.77
2019-04-29T11:53:26.355Z,2.87
2019-04-29T11:55:57.083Z,3.43
2019-04-29T11:58:35.235Z,4.50
2019-04-29T12:01:18.076Z,3.60
2019-04-29T12:03:51.522Z,5.73
2019-04-29T12:06:20.862Z,5.23
2019-04-29T12:08:53.378Z,3.73
2019-04-29T12:11:20.684Z,3.83
2019-04-29T12:14:07.675Z,3.40
2019-04-29T12:16:40.101Z,3.97
2019-04-29T12:19:17.096Z,3.00
2019-04-29T12:21:45.043Z,4.10
2019-04-29T12:24:14.430Z,2.77
2019-04-29T12:26:44.552Z,3.03
2019-04-29T12:29:18.111Z,4.07
2019-04-29T12:32:01.047Z,2.53
2019-04-29T12:34:49.851Z,4.07
2019-04-29T12:37:36.427Z,2.60
2019-04-29T12:40:28.415Z,3.17
2019-04-29T12:43:16.249Z,3.00
2019-04-29T12:45:53.813Z,4.83
2019-04-29T12:48:24.930Z,3.17
2019-04-29T12:50:57.315Z,4.03
2019-04-29T12:53:24.452Z,2.23
2019-04-29T12:55:55.219Z,2.43
2019-04-29T12:58:25.845Z,3.97
2019-04-29T13:01:01.236Z,2.83
2019-04-29T13:03:40.101Z,3.03
2019-04-29T13:06:23.237Z,3.13
2019-04-29T13:08:50.318Z,3.53
2019-04-29T13:11:20.931Z,3.33
2019-04-29T13:13:51.391Z,2.60
2019-04-29T13:16:28.870Z,3.70
2019-04-29T13:19:14.433Z,3.50
2019-04-29T13:21:41.838Z,3.13
2019-04-29T13:24:23.984Z,2.63
2019-04-29T13:26:43.190Z,3.20
2019-04-29T13:29:26.272Z,3.10
2019-04-29T13:31:43.268Z,3.73
2019-04-29T13:34:24.004Z,3.37
2019-04-29T13:37:05.475Z,3.43
2019-04-29T13:39:17.529Z,3.53
2019-04-29T13:41:57.023Z,3.40
2019-04-29T13:44:19.708Z,3.40
2019-04-29T13:47:10.293Z,3.40
2019-04-29T13:49:42.452Z,4.37
2019-04-29T13:52:12.922Z,3.57
2019-04-29T13:54:43.954Z,2.80
2019-04-29T13:57:16.020Z,3.27
2019-04-29T13:59:54.418Z,2.93
2019-04-29T14:02:36.876Z,3.80
2019-04-29T14:05:05.283Z,2.30
2019-04-29T14:07:34.676Z,2.90
2019-04-29T14:10:04.014Z,2.40
2019-04-29T14:12:54.331Z,3.10
2019-04-29T14:15:03.943Z,2.67
2019-04-29T14:17:35.661Z,2.93
2019-04-29T14:20:04.271Z,2.90
2019-04-29T14:22:33.740Z,4.33
2019-04-29T14:25:02.655Z,3.07
2019-04-29T14:27:31.559Z,5.43
2019-04-29T14:30:02.945Z,2.80
2019-04-29T14:32:35.834Z,2.27
2019-04-29T14:35:11.905Z,3.57
2019-04-29T14:37:37.873Z,3.30
2019-04-29T14:40:09.451Z,3.45
2019-04-29T14:42:58.302Z,4.00
2019-04-29T14:45:45.707Z,3.47
2019-04-29T14:48:41.665Z,2.73
2019-04-29T14:50:59.521Z,2.80
2019-04-29T14:53:28.624Z,3.10
2019-04-29T14:55:57.695Z,2.73
2019-04-29T14:58:26.562Z,3.67
2019-04-29T15:01:24.029Z,3.23
2019-04-29T15:04:01.713Z,2.93
2019-04-29T15:06:30.697Z,3.13
2019-04-29T15:09:00.086Z,2.80
2019-04-29T15:11:34.334Z,2.90
2019-04-29T15:14:23.761Z,2.93
2019-04-29T15:16:57.727Z,2.53
2019-04-29T15:19:49.381Z,3.90
2019-04-29T15:22:16.572Z,2.73
2019-04-29T15:24:45.611Z,3.03
2019-04-29T15:27:15.342Z,3.03
2019-04-29T15:29:44.228Z,2.53
2019-04-29T15:32:13.149Z,3.33
2019-04-29T15:34:43.917Z,3.47
2019-04-29T15:37:12.893Z,3.07
2019-04-29T15:39:46.064Z,2.27
2019-04-29T15:42:12.656Z,2.97
2019-04-29T15:44:41.891Z,2.67
2019-04-29T15:47:10.995Z,3.23
2019-04-29T15:49:40.052Z,2.77
2019-04-29T15:52:09.068Z,2.70
2019-04-29T15:54:37.923Z,2.10
2019-04-29T15:57:09.723Z,2.23
2019-04-29T15:59:48.707Z,2.30
2019-04-29T16:02:09.753Z,2.10
2019-04-29T16:04:47.130Z,3.07
2019-04-29T16:07:27.799Z,3.43
2019-04-29T16:10:20.579Z,1.90
2019-04-29T16:12:50.935Z,2.10
2019-04-29T16:15:20.563Z,2.40
2019-04-29T16:17:49.548Z,2.33
2019-04-29T16:20:18.644Z,1.70
2019-04-29T16:22:47.538Z,1.50
2019-04-29T16:25:16.578Z,2.50
2019-04-29T16:32:47.852Z,2.40
2019-04-29T16:35:17.874Z,2.00
2019-04-29T16:37:47.903Z,1.63
2019-04-29T16:40:17.207Z,1.63
2019-04-29T16:43:05.187Z,1.77
2019-04-29T16:45:51.534Z,2.50
2019-04-29T16:48:15.335Z,2.50
2019-04-29T16:50:44.199Z,3.20
2019-04-29T16:53:13.210Z,2.07
2019-04-29T16:55:43.218Z,1.80
2019-04-29T16:58:18.120Z,1.40
2019-04-29T17:00:46.830Z,2.67
2019-04-29T17:03:15.132Z,2.10
2019-04-29T17:05:45.615Z,1.60
2019-04-29T17:08:15.831Z,1.40
2019-04-29T17:10:56.322Z,1.43
2019-04-29T17:13:25.199Z,2.00
2019-04-29T17:15:54.485Z,1.30
2019-04-29T17:18:23.323Z,1.57
2019-04-29T17:20:52.384Z,1.60
2019-04-29T17:23:24.351Z,1.10
2019-04-29T17:25:52.881Z,1.53
2019-04-29T17:28:29.907Z,2.13
2019-04-29T17:31:17.707Z,1.83
2019-04-29T17:33:54.410Z,1.70
2019-04-29T17:35:15.774Z,3.10
2019-04-29T17:35:18.873Z,1.53
2019-04-29T17:36:25.765Z,1.40
2019-04-29T17:38:54.643Z,1.23
2019-04-29T17:41:23.523Z,1.90
2019-04-29T17:44:18.802Z,3.00
2019-04-29T17:46:52.660Z,3.37
2019-04-29T17:49:30.582Z,1.20
2019-04-29T17:52:02.878Z,1.87
2019-04-29T17:54:35.095Z,1.70
2019-04-29T17:57:27.855Z,2.93
2019-04-29T18:00:05.133Z,1.23
2019-04-29T18:02:45.575Z,3.13
2019-04-29T18:05:33.083Z,2.77
2019-04-29T18:08:02.487Z,1.40
2019-04-29T18:10:36.769Z,2.07
2019-04-29T18:13:06.534Z,1.57
2019-04-29T18:15:47.194Z,1.83
2019-04-29T18:18:17.051Z,1.53
2019-04-29T18:21:03.052Z,1.60
2019-04-29T18:23:56.745Z,2.47
2019-04-29T18:26:27.630Z,1.87
2019-04-29T18:29:03.623Z,1.53
2019-04-29T18:31:30.578Z,1.70
2019-04-29T18:33:59.390Z,1.70
2019-04-29T18:36:28.650Z,2.13
2019-04-29T18:38:57.674Z,1.70
2019-04-29T18:41:28.782Z,2.00
2019-04-29T18:44:03.149Z,2.23
2019-04-29T18:46:28.643Z,2.27
2019-04-29T18:49:02.773Z,1.80
2019-04-29T18:51:28.851Z,1.90
2019-04-29T18:53:57.943Z,1.90
2019-04-29T18:56:26.916Z,2.23
2019-04-29T18:58:55.859Z,1.83
2019-04-29T19:01:28.973Z,1.90
2019-04-29T19:04:04.646Z,3.30
2019-04-29T19:06:32.471Z,2.67
2019-04-29T19:09:02.804Z,3.57
2019-04-29T19:11:32.773Z,3.40
2019-04-29T19:14:01.980Z,1.97
2019-04-29T19:16:31.019Z,1.97
2019-04-29T19:19:01.812Z,3.27
2019-04-29T19:21:31.689Z,2.70
2019-04-29T19:24:00.936Z,3.83
2019-04-29T19:26:29.929Z,4.40
2019-04-29T19:29:01.194Z,2.50
2019-04-29T19:31:30.003Z,3.13
2019-04-29T19:33:59.036Z,3.10
2019-04-29T19:36:28.415Z,3.63
2019-04-29T19:38:57.296Z,2.80
2019-04-29T19:41:27.640Z,3.70
2019-04-29T19:43:56.768Z,4.33
2019-04-29T19:46:36.729Z,3.40
2019-04-29T19:48:58.262Z,4.47
2019-04-29T19:51:27.688Z,4.87
2019-04-29T19:53:56.708Z,4.63
2019-04-29T19:56:27.056Z,4.20
2019-04-29T19:58:58.001Z,4.00
2019-04-29T20:01:31.446Z,4.30
2019-04-29T20:04:32.379Z,3.83
2019-04-29T20:07:06.542Z,3.37
2019-04-29T20:09:33.450Z,4.47
2019-04-29T20:12:09.200Z,4.80
2019-04-29T20:14:36.439Z,3.57
2019-04-29T20:17:21.791Z,4.10
2019-04-29T20:20:05.298Z,4.30
2019-04-29T20:22:37.010Z,4.77
2019-04-29T20:25:06.353Z,4.20
2019-04-29T20:27:37.592Z,3.67
2019-04-29T20:30:15.821Z,4.40
2019-04-29T20:32:38.428Z,4.80
2019-04-29T20:35:08.874Z,4.27
2019-04-29T20:37:38.690Z,4.80
2019-04-29T20:40:08.169Z,5.17
2019-04-29T20:42:40.443Z,5.50
2019-04-29T20:45:08.456Z,5.40
2019-04-29T20:47:41.614Z,5.03
2019-04-29T20:50:08.909Z,6.83
2019-04-29T20:52:52.122Z,5.53
2019-04-29T20:55:19.355Z,5.90
2019-04-29T20:57:52.506Z,5.77
2019-04-29T21:00:24.385Z,6.03
2019-04-29T21:02:50.768Z,5.90
2019-04-29T21:05:24.581Z,6.37
2019-04-29T21:08:02.377Z,6.20
2019-04-29T21:10:23.385Z,6.37
2019-04-29T21:13:02.671Z,8.10
2019-04-29T21:15:45.104Z,5.93
2019-04-29T21:18:15.853Z,7.70
2019-04-29T21:20:45.350Z,6.47
2019-04-29T21:23:14.320Z,6.87
2019-04-29T21:25:43.359Z,7.87
2019-04-29T21:28:12.430Z,6.30
2019-04-29T21:30:42.661Z,9.77
2019-04-29T21:33:18.271Z,6.47
2019-04-29T21:35:49.547Z,6.70
2019-04-29T21:38:40.592Z,8.90
2019-04-29T21:41:15.624Z,7.20
2019-04-29T21:43:47.090Z,7.30
2019-04-29T21:46:18.025Z,7.83
2019-04-29T21:48:47.004Z,7.70
2019-04-29T21:51:17.440Z,7.27
2019-04-29T21:53:46.547Z,9.07
2019-04-29T21:56:16.048Z,8.43
2019-04-29T21:58:45.171Z,8.10
2019-04-29T22:01:15.239Z,7.70
2019-04-29T22:03:44.480Z,8.13
2019-04-29T22:06:13.466Z,8.70
2019-04-29T22:08:42.852Z,7.70
2019-04-29T22:11:11.861Z,7.00
2019-04-29T22:13:40.855Z,7.63
2019-04-29T22:16:11.535Z,7.67
2019-04-29T22:18:44.626Z,8.17
2019-04-29T22:21:16.930Z,7.33
2019-04-29T22:23:44.333Z,7.00
2019-04-29T22:26:18.287Z,7.97
2019-04-29T22:28:46.007Z,8.00
2019-04-29T22:31:16.823Z,7.40
2019-04-29T22:33:48.721Z,7.40
2019-04-29T22:36:18.164Z,7.80
2019-04-29T22:38:48.600Z,7.83
2019-04-29T22:41:25.912Z,8.83
2019-04-29T22:44:00.040Z,8.40
2019-04-29T22:46:29.319Z,9.23
2019-04-29T22:48:58.203Z,8.33
2019-04-29T22:51:27.959Z,9.20
2019-04-29T22:53:56.939Z,8.70
2019-04-29T22:56:27.822Z,10.57
2019-04-29T22:58:56.614Z,8.77
2019-04-29T23:01:25.997Z,9.90
2019-04-29T23:03:55.538Z,9.80
2019-04-29T23:06:25.860Z,10.77
2019-04-29T23:08:56.113Z,10.23
2019-04-29T23:11:25.569Z,10.00
2019-04-29T23:13:55.434Z,10.20
2019-04-29T23:16:24.463Z,10.07
2019-04-29T23:18:55.236Z,10.93
2019-04-29T23:21:47.481Z,9.77
2019-04-29T23:24:26.190Z,10.83
2019-04-29T23:26:55.304Z,10.37
2019-04-29T23:29:25.498Z,12.40
2019-04-29T23:31:55.402Z,9.13
2019-04-29T23:34:27.789Z,11.37
2019-04-29T23:36:55.104Z,11.20
2019-04-29T23:39:24.901Z,11.83
2019-04-29T23:41:55.410Z,12.00
2019-04-29T23:44:24.534Z,12.53
2019-04-29T23:46:53.427Z,14.57
2019-04-29T23:49:22.381Z,11.97
2019-04-29T23:51:51.227Z,14.50
2019-04-29T23:54:20.078Z,12.50
2019-04-29T23:57:07.936Z,12.47
2019-04-29T23:59:38.687Z,11.80
